Station Historical Data
Daily Summary for May 23, 2012 Units:  English    Metric   Both
« Previous Day
Next Day »
Daily Weekly Monthly Yearly Custom
  High: Low: Average:
Temperature: 80.4 °F 50.8 °F 67.4 °F
Dew Point: 60.9 °F 49.0 °F 54.6 °F
Humidity: 95% 38% 67%
Wind Speed: 9.0mph 0.0mph 1.7mph
Wind Gust: 11.0mph - -
Wind- - SSE
Pressure: 29.88 in 29.79 in -
Precipitation: 0.00 in    
Historical Graphs
 
 
Tabular Data for May 23, 2012
Time Temperature Dew Point Pressure Wind Wind Speed Wind Gust Humidity Rainfall Rate (Hourly) Conditions
00:00 60.4 °F 53.5 °F 29.87 in North 1.0 mph 1.0 mph 78% 0.00 in
00:01 60.5 °F 53.6 °F 29.87 in North 1.0 mph 1.0 mph 78% 0.00 in
00:06 60.6 °F 53.7 °F 29.87 in Calm     78% 0.00 in
00:11 60.5 °F 53.3 °F 29.87 in Calm   1.0 mph 77% 0.00 in
00:14 60.2 °F 53.7 °F 29.87 in Calm     79% 0.00 in
00:19 59.8 °F 53.3 °F 29.87 in Calm   1.0 mph 79% 0.00 in
00:24 59.6 °F 53.1 °F 29.87 in Calm     79% 0.00 in
00:30 59.5 °F 53.0 °F 29.87 in Calm   1.0 mph 79% 0.00 in
00:35 59.5 °F 53.0 °F 29.87 in Calm     79% 0.00 in
00:40 59.2 °F 52.7 °F 29.87 in Calm   1.0 mph 79% 0.00 in
00:45 59.3 °F 52.5 °F 29.87 in Calm   1.0 mph 78% 0.00 in
00:50 59.6 °F 52.4 °F 29.87 in NNE 1.0 mph 1.0 mph 77% 0.00 in
00:55 59.7 °F 52.5 °F 29.87 in Calm   1.0 mph 77% 0.00 in
01:00 59.7 °F 52.5 °F 29.87 in NNE 1.0 mph 2.0 mph 77% 0.00 in
01:05 59.6 °F 52.4 °F 29.87 in Calm   2.0 mph 77% 0.00 in
01:10 59.5 °F 52.3 °F 29.87 in Calm   1.0 mph 77% 0.00 in
01:15 59.5 °F 51.9 °F 29.87 in NE 1.0 mph 1.0 mph 76% 0.00 in
01:20 59.5 °F 51.9 °F 29.87 in North 1.0 mph 1.0 mph 76% 0.00 in
01:25 59.3 °F 52.1 °F 29.87 in NNW 1.0 mph 2.0 mph 77% 0.00 in
01:30 58.4 °F 52.6 °F 29.87 in Calm   1.0 mph 81% 0.00 in
01:35 57.6 °F 52.5 °F 29.87 in Calm     83% 0.00 in
01:40 57.2 °F 52.4 °F 29.87 in Calm     84% 0.00 in
01:45 57.0 °F 52.5 °F 29.86 in Calm     85% 0.00 in
01:50 56.9 °F 52.4 °F 29.87 in Calm     85% 0.00 in
01:55 56.7 °F 52.6 °F 29.86 in Calm     86% 0.00 in
02:00 56.2 °F 52.4 °F 29.86 in Calm     87% 0.00 in
02:06 55.8 °F 52.3 °F 29.86 in Calm     88% 0.00 in
02:11 55.4 °F 52.2 °F 29.86 in Calm     89% 0.00 in
02:16 55.2 °F 52.3 °F 29.86 in Calm     90% 0.00 in
02:21 55.0 °F 52.1 °F 29.85 in Calm     90% 0.00 in
02:26 54.9 °F 52.3 °F 29.85 in Calm     91% 0.00 in
02:31 54.7 °F 52.1 °F 29.85 in Calm     91% 0.00 in
02:36 54.4 °F 51.8 °F 29.85 in Calm     91% 0.00 in
02:41 54.1 °F 51.5 °F 29.85 in Calm     91% 0.00 in
02:46 54.1 °F 52.1 °F 29.85 in Calm     93% 0.00 in
02:51 53.9 °F 51.9 °F 29.85 in Calm     93% 0.00 in
02:56 53.9 °F 51.9 °F 29.85 in Calm     93% 0.00 in
03:01 54.1 °F 52.1 °F 29.84 in Calm     93% 0.00 in
03:06 53.9 °F 51.9 °F 29.84 in Calm     93% 0.00 in
03:11 53.9 °F 51.9 °F 29.84 in Calm     93% 0.00 in
03:17 53.7 °F 51.7 °F 29.84 in Calm     93% 0.00 in
03:22 53.3 °F 51.3 °F 29.84 in Calm     93% 0.00 in
03:27 53.2 °F 51.2 °F 29.84 in Calm     93% 0.00 in
03:32 53.3 °F 51.3 °F 29.84 in Calm     93% 0.00 in
03:37 53.3 °F 51.3 °F 29.84 in Calm     93% 0.00 in
03:42 53.2 °F 51.2 °F 29.84 in Calm     93% 0.00 in
03:47 53.0 °F 51.3 °F 29.84 in Calm     94% 0.00 in
03:49 53.0 °F 51.3 °F 29.84 in Calm     94% 0.00 in
03:54 52.9 °F 51.2 °F 29.84 in Calm     94% 0.00 in
03:59 53.0 °F 51.3 °F 29.84 in Calm     94% 0.00 in
04:04 53.1 °F 51.4 °F 29.84 in Calm     94% 0.00 in
04:09 53.3 °F 51.3 °F 29.84 in Calm     93% 0.00 in
04:14 53.4 °F 51.4 °F 29.84 in Calm     93% 0.00 in
04:19 53.4 °F 51.4 °F 29.84 in Calm   1.0 mph 93% 0.00 in
04:24 53.4 °F 51.1 °F 29.84 in Calm   1.0 mph 92% 0.00 in
04:29 53.3 °F 51.0 °F 29.83 in Calm     92% 0.00 in
04:34 53.2 °F 50.9 °F 29.83 in Calm   1.0 mph 92% 0.00 in
04:39 53.3 °F 51.0 °F 29.84 in Calm     92% 0.00 in
04:44 53.4 °F 51.1 °F 29.84 in Calm     92% 0.00 in
04:49 53.5 °F 50.9 °F 29.84 in NNW 1.0 mph 1.0 mph 91% 0.00 in
04:54 53.4 °F 50.8 °F 29.84 in NNW 1.0 mph 1.0 mph 91% 0.00 in
04:59 53.1 °F 50.8 °F 29.84 in Calm   1.0 mph 92% 0.00 in
05:05 52.8 °F 50.5 °F 29.84 in Calm     92% 0.00 in
05:10 52.7 °F 50.5 °F 29.83 in Calm     92% 0.00 in
05:15 52.5 °F 50.5 °F 29.83 in Calm     93% 0.00 in
05:20 52.5 °F 50.5 °F 29.84 in Calm     93% 0.00 in
05:25 52.5 °F 50.5 °F 29.84 in Calm   1.0 mph 93% 0.00 in
05:30 52.2 °F 50.2 °F 29.84 in NNW 1.0 mph 1.0 mph 93% 0.00 in
05:35 52.1 °F 50.4 °F 29.84 in Calm   1.0 mph 94% 0.00 in
05:40 52.1 °F 50.4 °F 29.83 in Calm     94% 0.00 in
05:45 52.0 °F 50.3 °F 29.83 in Calm   1.0 mph 94% 0.00 in
05:50 52.4 °F 50.7 °F 29.84 in Calm     94% 0.00 in
05:55 52.5 °F 50.5 °F 29.84 in Calm     93% 0.00 in
06:00 52.5 °F 50.5 °F 29.84 in Calm     93% 0.00 in
06:05 52.8 °F 50.8 °F 29.84 in Calm   1.0 mph 93% 0.00 in
06:10 53.2 °F 51.2 °F 29.84 in Calm   1.0 mph 93% 0.00 in
06:15 53.2 °F 50.7 °F 29.84 in NNW 1.0 mph 1.0 mph 91% 0.00 in
06:20 52.5 °F 50.2 °F 29.84 in NNW 1.0 mph 1.0 mph 92% 0.00 in
06:25 52.0 °F 50.0 °F 29.84 in NNW 1.0 mph 1.0 mph 93% 0.00 in
06:30 51.8 °F 49.8 °F 29.84 in Calm   1.0 mph 93% 0.00 in
06:35 51.4 °F 49.5 °F 29.85 in Calm     93% 0.00 in
06:40 51.0 °F 49.0 °F 29.85 in Calm     93% 0.00 in
06:45 50.8 °F 49.1 °F 29.85 in Calm     94% 0.00 in
06:46 50.9 °F 49.2 °F 29.85 in Calm     94% 0.00 in
06:51 50.8 °F 49.1 °F 29.85 in Calm     94% 0.00 in
06:56 51.3 °F 49.9 °F 29.86 in Calm     95% 0.00 in
07:01 51.2 °F 49.5 °F 29.86 in Calm     94% 0.00 in
07:06 51.1 °F 49.4 °F 29.86 in Calm     94% 0.00 in
07:11 51.2 °F 49.5 °F 29.86 in Calm     94% 0.00 in
07:16 51.4 °F 50.0 °F 29.86 in Calm     95% 0.00 in
07:21 52.2 °F 50.8 °F 29.86 in Calm     95% 0.00 in
07:26 52.9 °F 51.2 °F 29.86 in Calm     94% 0.00 in
07:31 53.4 °F 51.7 °F 29.86 in Calm     94% 0.00 in
07:37 54.4 °F 52.7 °F 29.86 in Calm     94% 0.00 in
07:42 55.6 °F 53.6 °F 29.86 in Calm     93% 0.00 in
07:47 55.9 °F 53.3 °F 29.85 in Calm     91% 0.00 in
07:52 56.3 °F 53.7 °F 29.86 in Calm     91% 0.00 in
07:57 56.6 °F 54.0 °F 29.86 in Calm     91% 0.00 in
08:02 56.9 °F 54.3 °F 29.86 in Calm     91% 0.00 in
08:07 57.3 °F 54.7 °F 29.86 in Calm     91% 0.00 in
08:12 58.1 °F 55.8 °F 29.86 in Calm     92% 0.00 in
08:17 59.4 °F 56.8 °F 29.86 in Calm     91% 0.00 in
08:22 60.7 °F 57.4 °F 29.86 in Calm     89% 0.00 in
08:27 61.2 °F 57.3 °F 29.86 in Calm     87% 0.00 in
08:32 61.7 °F 56.8 °F 29.86 in Calm     84% 0.00 in
08:37 62.6 °F 58.0 °F 29.86 in Calm     85% 0.00 in
08:42 64.1 °F 59.2 °F 29.86 in Calm     84% 0.00 in
08:47 65.9 °F 59.6 °F 29.86 in Calm     80% 0.00 in
08:52 67.6 °F 60.9 °F 29.87 in Calm     79% 0.00 in
08:57 68.7 °F 59.7 °F 29.87 in ESE 1.0 mph 2.0 mph 73% 0.00 in
09:02 67.8 °F 59.2 °F 29.87 in ESE 2.0 mph 4.0 mph 74% 0.00 in
09:07 67.6 °F 58.7 °F 29.87 in SE 2.0 mph 2.0 mph 73% 0.00 in
09:13 67.5 °F 57.4 °F 29.87 in ESE 2.0 mph 3.0 mph 70% 0.00 in
09:18 67.5 °F 56.6 °F 29.87 in ESE 1.0 mph 3.0 mph 68% 0.00 in
09:23 68.0 °F 57.5 °F 29.87 in Calm   3.0 mph 69% 0.00 in
09:28 68.4 °F 57.0 °F 29.87 in Calm   2.0 mph 67% 0.00 in
09:33 69.2 °F 57.8 °F 29.87 in SE 2.0 mph 2.0 mph 67% 0.00 in
09:38 69.9 °F 58.5 °F 29.87 in SSW 1.0 mph 2.0 mph 67% 0.00 in
09:43 70.0 °F 58.5 °F 29.87 in SE 2.0 mph 2.0 mph 67% 0.00 in
09:48 70.3 °F 58.8 °F 29.87 in SSE 1.0 mph 3.0 mph 67% 0.00 in
09:53 70.6 °F 58.7 °F 29.87 in SE 2.0 mph 3.0 mph 66% 0.00 in
09:58 70.4 °F 57.2 °F 29.87 in ESE 2.0 mph 4.0 mph 63% 0.00 in
10:03 70.2 °F 58.3 °F 29.87 in ESE 2.0 mph 4.0 mph 66% 0.00 in
10:08 70.1 °F 57.8 °F 29.87 in ESE 2.0 mph 5.0 mph 65% 0.00 in
10:13 70.3 °F 58.0 °F 29.87 in SSE 2.0 mph 4.0 mph 65% 0.00 in
10:18 70.6 °F 58.3 °F 29.87 in SW 2.0 mph 4.0 mph 65% 0.00 in
10:23 70.5 °F 57.3 °F 29.87 in ESE 3.0 mph 4.0 mph 63% 0.00 in
10:28 70.6 °F 56.5 °F 29.87 in Calm   3.0 mph 61% 0.00 in
10:33 71.4 °F 58.6 °F 29.87 in East 1.0 mph 3.0 mph 64% 0.00 in
10:38 71.5 °F 57.4 °F 29.87 in SSW 3.0 mph 6.0 mph 61% 0.00 in
10:43 71.7 °F 56.2 °F 29.87 in SSW 3.0 mph 4.0 mph 58% 0.00 in
10:48 71.9 °F 55.4 °F 29.88 in SSE 5.0 mph 8.0 mph 56% 0.00 in
10:53 71.7 °F 57.1 °F 29.88 in SSW 3.0 mph 6.0 mph 60% 0.00 in
10:58 71.8 °F 56.2 °F 29.87 in SSE 3.0 mph 3.0 mph 58% 0.00 in
11:03 72.1 °F 57.5 °F 29.87 in South 3.0 mph 7.0 mph 60% 0.00 in
11:08 72.3 °F 57.2 °F 29.87 in WSW 8.0 mph 8.0 mph 59% 0.00 in
11:13 72.1 °F 56.5 °F 29.88 in SSW 1.0 mph 6.0 mph 58% 0.00 in
11:18 72.3 °F 56.2 °F 29.88 in South 4.0 mph 8.0 mph 57% 0.00 in
11:23 72.5 °F 56.4 °F 29.88 in SW 4.0 mph 7.0 mph 57% 0.00 in
11:28 72.7 °F 56.6 °F 29.88 in SW 6.0 mph 7.0 mph 57% 0.00 in
11:33 72.6 °F 57.5 °F 29.88 in SSW 4.0 mph 8.0 mph 59% 0.00 in
11:38 73.0 °F 56.4 °F 29.88 in Calm   3.0 mph 56% 0.00 in
11:43 73.6 °F 57.4 °F 29.88 in SSW 3.0 mph 5.0 mph 57% 0.00 in
11:48 73.5 °F 55.9 °F 29.88 in West 5.0 mph 9.0 mph 54% 0.00 in
11:53 73.1 °F 56.0 °F 29.88 in SW 4.0 mph 7.0 mph 55% 0.00 in
11:58 73.4 °F 56.3 °F 29.88 in SW 3.0 mph 6.0 mph 55% 0.00 in
12:03 73.2 °F 56.6 °F 29.88 in WSW 8.0 mph 8.0 mph 56% 0.00 in
12:09 73.3 °F 57.2 °F 29.88 in West 2.0 mph 8.0 mph 57% 0.00 in
12:14 73.7 °F 57.0 °F 29.87 in WSW 2.0 mph 4.0 mph 56% 0.00 in
12:19 73.9 °F 55.2 °F 29.87 in SSW 3.0 mph 7.0 mph 52% 0.00 in
12:24 74.0 °F 55.3 °F 29.88 in SW 3.0 mph 7.0 mph 52% 0.00 in
12:29 74.2 °F 54.9 °F 29.87 in WSW 2.0 mph 3.0 mph 51% 0.00 in
12:34 74.4 °F 56.2 °F 29.87 in SW 3.0 mph 7.0 mph 53% 0.00 in
12:39 74.1 °F 54.8 °F 29.87 in WSW 2.0 mph 10.0 mph 51% 0.00 in
12:44 74.0 °F 54.7 °F 29.87 in SSE 3.0 mph 8.0 mph 51% 0.00 in
12:45 74.0 °F 54.7 °F 29.87 in SSE 2.0 mph 8.0 mph 51% 0.00 in
12:50 74.4 °F 55.7 °F 29.87 in WNW 3.0 mph 5.0 mph 52% 0.00 in
12:55 74.8 °F 57.1 °F 29.87 in SSW 2.0 mph 6.0 mph 54% 0.00 in
13:00 75.0 °F 55.7 °F 29.87 in SSE 2.0 mph 11.0 mph 51% 0.00 in
13:05 75.3 °F 57.0 °F 29.87 in SSW 9.0 mph 9.0 mph 53% 0.00 in
13:10 75.6 °F 55.1 °F 29.87 in SSE 2.0 mph 4.0 mph 49% 0.00 in
13:15 75.5 °F 55.0 °F 29.87 in WSW 4.0 mph 7.0 mph 49% 0.00 in
13:20 75.7 °F 56.3 °F 29.87 in SSW 5.0 mph 9.0 mph 51% 0.00 in
13:25 75.9 °F 55.4 °F 29.87 in SW 8.0 mph 8.0 mph 49% 0.00 in
13:31 76.1 °F 56.1 °F 29.86 in SSE 6.0 mph 9.0 mph 50% 0.00 in
13:36 76.0 °F 56.0 °F 29.87 in SSE 4.0 mph 8.0 mph 50% 0.00 in
13:41 75.7 °F 57.9 °F 29.86 in South 1.0 mph 7.0 mph 54% 0.00 in
13:46 76.2 °F 58.4 °F 29.86 in WSW 5.0 mph 5.0 mph 54% 0.00 in
13:51 76.4 °F 57.5 °F 29.86 in SSE 3.0 mph 6.0 mph 52% 0.00 in
13:56 76.7 °F 55.0 °F 29.86 in West 4.0 mph 7.0 mph 47% 0.00 in
14:01 76.7 °F 55.0 °F 29.86 in South 3.0 mph 7.0 mph 47% 0.00 in
14:06 76.9 °F 54.6 °F 29.85 in ESE 4.0 mph 8.0 mph 46% 0.00 in
14:11 76.7 °F 56.1 °F 29.85 in SE 3.0 mph 6.0 mph 49% 0.00 in
14:16 77.3 °F 56.7 °F 29.85 in SSE 1.0 mph 5.0 mph 49% 0.00 in
14:21 77.6 °F 57.5 °F 29.85 in South 2.0 mph 4.0 mph 50% 0.00 in
14:26 77.7 °F 55.3 °F 29.85 in WSW 4.0 mph 6.0 mph 46% 0.00 in
14:31 77.7 °F 56.5 °F 29.85 in SSW 4.0 mph 8.0 mph 48% 0.00 in
14:37 77.6 °F 55.8 °F 29.84 in NNE 4.0 mph 4.0 mph 47% 0.00 in
14:42 77.5 °F 58.5 °F 29.84 in SSE 4.0 mph 5.0 mph 52% 0.00 in
14:47 77.7 °F 57.0 °F 29.84 in West 5.0 mph 6.0 mph 49% 0.00 in
14:52 77.5 °F 55.7 °F 29.84 in Calm   3.0 mph 47% 0.00 in
14:57 77.7 °F 55.3 °F 29.84 in West 2.0 mph 7.0 mph 46% 0.00 in
15:02 77.6 °F 55.2 °F 29.83 in Calm   4.0 mph 46% 0.00 in
15:03 77.6 °F 55.8 °F 29.83 in Calm   4.0 mph 47% 0.00 in
15:08 78.2 °F 57.5 °F 29.83 in SW 5.0 mph 7.0 mph 49% 0.00 in
15:13 78.6 °F 56.7 °F 29.83 in SSW 4.0 mph 7.0 mph 47% 0.00 in
15:18 78.6 °F 55.5 °F 29.83 in SW 6.0 mph 8.0 mph 45% 0.00 in
15:23 78.4 °F 55.3 °F 29.83 in South 4.0 mph 5.0 mph 45% 0.00 in
15:28 78.6 °F 55.5 °F 29.83 in SSE 4.0 mph 6.0 mph 45% 0.00 in
15:33 78.8 °F 56.3 °F 29.82 in South 1.0 mph 3.0 mph 46% 0.00 in
15:38 78.7 °F 53.0 °F 29.82 in ESE 3.0 mph 5.0 mph 41% 0.00 in
15:43 78.3 °F 54.6 °F 29.82 in ESE 3.0 mph 4.0 mph 44% 0.00 in
15:48 78.8 °F 54.4 °F 29.82 in SW 2.0 mph 5.0 mph 43% 0.00 in
15:53 79.0 °F 55.2 °F 29.82 in SE 3.0 mph 6.0 mph 44% 0.00 in
15:58 79.0 °F 55.9 °F 29.82 in West 2.0 mph 7.0 mph 45% 0.00 in
16:04 79.6 °F 58.8 °F 29.82 in SSW 2.0 mph 5.0 mph 49% 0.00 in
16:09 80.1 °F 57.5 °F 29.81 in ESE 4.0 mph 6.0 mph 46% 0.00 in
16:14 79.7 °F 56.5 °F 29.81 in Calm   2.0 mph 45% 0.00 in
16:19 80.1 °F 57.5 °F 29.81 in East 9.0 mph 9.0 mph 46% 0.00 in
16:24 79.4 °F 56.2 °F 29.81 in East 7.0 mph 8.0 mph 45% 0.00 in
16:29 79.2 °F 57.2 °F 29.81 in SSE 3.0 mph 6.0 mph 47% 0.00 in
16:34 79.7 °F 58.9 °F 29.81 in WSW 3.0 mph 5.0 mph 49% 0.00 in
16:39 79.2 °F 54.2 °F 29.81 in SE 7.0 mph 10.0 mph 42% 0.00 in
16:44 78.9 °F 55.8 °F 29.81 in SSE 3.0 mph 8.0 mph 45% 0.00 in
16:49 79.3 °F 56.1 °F 29.80 in SW 3.0 mph 4.0 mph 45% 0.00 in
16:54 79.4 °F 55.0 °F 29.80 in WSW 2.0 mph 5.0 mph 43% 0.00 in
16:59 79.4 °F 56.8 °F 29.80 in SW 3.0 mph 7.0 mph 46% 0.00 in
17:04 79.5 °F 57.5 °F 29.80 in NE 2.0 mph 3.0 mph 47% 0.00 in
17:09 79.5 °F 55.7 °F 29.80 in SE 2.0 mph 7.0 mph 44% 0.00 in
17:14 79.7 °F 55.2 °F 29.80 in SSW 3.0 mph 7.0 mph 43% 0.00 in
17:19 79.8 °F 54.0 °F 29.80 in SSE 5.0 mph 9.0 mph 41% 0.00 in
17:24 79.5 °F 55.7 °F 29.80 in ESE 9.0 mph 9.0 mph 44% 0.00 in
17:29 79.4 °F 53.0 °F 29.80 in ESE 7.0 mph 10.0 mph 40% 0.00 in
17:34 79.1 °F 53.4 °F 29.80 in SE 5.0 mph 9.0 mph 41% 0.00 in
17:40 78.8 °F 53.8 °F 29.80 in East 3.0 mph 7.0 mph 42% 0.00 in
17:45 79.1 °F 53.4 °F 29.80 in Calm   4.0 mph 41% 0.00 in
17:50 80.1 °F 55.0 °F 29.80 in SW 3.0 mph 6.0 mph 42% 0.00 in
17:55 80.0 °F 52.8 °F 29.80 in SSW 2.0 mph 4.0 mph 39% 0.00 in
18:00 79.9 °F 52.0 °F 29.80 in SW 3.0 mph 8.0 mph 38% 0.00 in
18:05 80.1 °F 55.0 °F 29.80 in SSE 5.0 mph 7.0 mph 42% 0.00 in
18:10 80.0 °F 54.2 °F 29.79 in SE 3.0 mph 6.0 mph 41% 0.00 in
18:15 80.0 °F 55.5 °F 29.79 in SSW 3.0 mph 7.0 mph 43% 0.00 in
18:20 80.1 °F 53.6 °F 29.80 in SSE 2.0 mph 7.0 mph 40% 0.00 in
18:25 80.4 °F 54.6 °F 29.80 in SE 5.0 mph 7.0 mph 41% 0.00 in
18:30 80.1 °F 55.6 °F 29.80 in SW 2.0 mph 2.0 mph 43% 0.00 in
18:31 80.1 °F 55.6 °F 29.80 in SW 2.0 mph 2.0 mph 43% 0.00 in
18:36 80.2 °F 54.4 °F 29.80 in SE 3.0 mph 3.0 mph 41% 0.00 in
18:41 80.2 °F 54.4 °F 29.80 in SE 5.0 mph 7.0 mph 41% 0.00 in
18:46 80.1 °F 55.6 °F 29.79 in South 6.0 mph 6.0 mph 43% 0.00 in
18:51 80.1 °F 55.0 °F 29.80 in SSE 4.0 mph 5.0 mph 42% 0.00 in
18:56 79.8 °F 56.0 °F 29.79 in SSE 3.0 mph 6.0 mph 44% 0.00 in
19:01 79.7 °F 56.5 °F 29.80 in ESE 5.0 mph 6.0 mph 45% 0.00 in
19:06 79.4 °F 56.2 °F 29.79 in SE 3.0 mph 5.0 mph 45% 0.00 in
19:11 79.2 °F 55.4 °F 29.79 in SE 4.0 mph 5.0 mph 44% 0.00 in
19:16 79.1 °F 56.6 °F 29.79 in South 2.0 mph 4.0 mph 46% 0.00 in
19:21 79.0 °F 55.9 °F 29.79 in SSE 3.0 mph 5.0 mph 45% 0.00 in
19:26 79.1 °F 55.3 °F 29.79 in South 2.0 mph 4.0 mph 44% 0.00 in
19:31 79.0 °F 56.5 °F 29.79 in SE 3.0 mph 6.0 mph 46% 0.00 in
19:36 78.6 °F 56.1 °F 29.79 in SE 3.0 mph 4.0 mph 46% 0.00 in
19:41 78.3 °F 55.2 °F 29.79 in ESE 4.0 mph 6.0 mph 45% 0.00 in
19:46 78.1 °F 55.7 °F 29.79 in SE 4.0 mph 5.0 mph 46% 0.00 in
19:51 78.1 °F 56.2 °F 29.79 in SE 2.0 mph 4.0 mph 47% 0.00 in
19:56 78.0 °F 56.7 °F 29.79 in SE 2.0 mph 3.0 mph 48% 0.00 in
20:02 78.1 °F 58.5 °F 29.79 in SSE 1.0 mph 2.0 mph 51% 0.00 in
20:07 77.8 °F 57.1 °F 29.79 in SE 1.0 mph 4.0 mph 49% 0.00 in
20:12 77.5 °F 56.9 °F 29.79 in ESE 2.0 mph 2.0 mph 49% 0.00 in
20:17 77.3 °F 57.8 °F 29.79 in ESE 1.0 mph 2.0 mph 51% 0.00 in
20:22 76.9 °F 58.0 °F 29.79 in SE 2.0 mph 3.0 mph 52% 0.00 in
20:27 76.5 °F 57.6 °F 29.79 in ESE 1.0 mph 2.0 mph 52% 0.00 in
20:32 76.0 °F 58.2 °F 29.79 in ESE 1.0 mph 1.0 mph 54% 0.00 in
20:37 75.5 °F 58.2 °F 29.79 in Calm   1.0 mph 55% 0.00 in
20:42 74.8 °F 58.6 °F 29.79 in Calm   1.0 mph 57% 0.00 in
20:47 73.9 °F 57.7 °F 29.79 in East 2.0 mph 2.0 mph 57% 0.00 in
20:52 73.4 °F 57.7 °F 29.79 in ESE 1.0 mph 1.0 mph 58% 0.00 in
20:57 72.7 °F 57.6 °F 29.79 in Calm     59% 0.00 in
21:02 72.0 °F 56.4 °F 29.80 in Calm   1.0 mph 58% 0.00 in
21:07 71.7 °F 56.6 °F 29.79 in ESE 1.0 mph 1.0 mph 59% 0.00 in
21:12 71.3 °F 56.2 °F 29.80 in ESE 1.0 mph 2.0 mph 59% 0.00 in
21:17 71.0 °F 56.0 °F 29.80 in ESE 1.0 mph 2.0 mph 59% 0.00 in
21:22 70.8 °F 56.2 °F 29.80 in Calm   1.0 mph 60% 0.00 in
21:27 70.5 °F 56.4 °F 29.80 in ESE 2.0 mph 2.0 mph 61% 0.00 in
21:32 70.2 °F 56.1 °F 29.80 in ESE 1.0 mph 2.0 mph 61% 0.00 in
21:38 70.1 °F 56.0 °F 29.80 in East 2.0 mph 2.0 mph 61% 0.00 in
21:43 70.0 °F 56.0 °F 29.80 in ESE 1.0 mph 2.0 mph 61% 0.00 in
21:48 69.9 °F 55.8 °F 29.80 in ESE 1.0 mph 1.0 mph 61% 0.00 in
21:53 69.7 °F 55.2 °F 29.80 in ESE 1.0 mph 2.0 mph 60% 0.00 in
21:58 69.6 °F 55.1 °F 29.80 in ESE 1.0 mph 2.0 mph 60% 0.00 in
22:03 69.4 °F 55.4 °F 29.80 in ESE 1.0 mph 1.0 mph 61% 0.00 in
22:08 69.3 °F 54.8 °F 29.81 in ESE 1.0 mph 1.0 mph 60% 0.00 in
22:13 69.2 °F 54.7 °F 29.81 in ESE 1.0 mph 1.0 mph 60% 0.00 in
22:18 69.2 °F 54.7 °F 29.81 in ESE 1.0 mph 1.0 mph 60% 0.00 in
22:23 68.9 °F 54.9 °F 29.81 in Calm   1.0 mph 61% 0.00 in
22:28 68.5 °F 55.0 °F 29.81 in Calm   1.0 mph 62% 0.00 in
22:33 68.1 °F 55.0 °F 29.81 in Calm     63% 0.00 in
22:38 68.0 °F 54.5 °F 29.81 in East 2.0 mph 2.0 mph 62% 0.00 in
22:43 68.3 °F 54.8 °F 29.81 in ESE 1.0 mph 2.0 mph 62% 0.00 in
22:48 68.3 °F 55.2 °F 29.81 in ESE 1.0 mph 2.0 mph 63% 0.00 in
22:54 68.3 °F 55.2 °F 29.81 in East 2.0 mph 3.0 mph 63% 0.00 in
22:59 68.2 °F 55.6 °F 29.81 in ESE 2.0 mph 2.0 mph 64% 0.00 in
23:04 67.9 °F 55.7 °F 29.82 in ESE 2.0 mph 3.0 mph 65% 0.00 in
23:09 67.6 °F 55.8 °F 29.81 in SE 2.0 mph 3.0 mph 66% 0.00 in
23:14 67.5 °F 55.8 °F 29.81 in ESE 3.0 mph 3.0 mph 66% 0.00 in
23:19 67.3 °F 56.0 °F 29.81 in ESE 2.0 mph 3.0 mph 67% 0.00 in
23:24 66.9 °F 55.6 °F 29.81 in ESE 2.0 mph 4.0 mph 67% 0.00 in
23:29 66.9 °F 56.0 °F 29.82 in SE 2.0 mph 3.0 mph 68% 0.00 in
23:34 67.0 °F 56.1 °F 29.81 in ESE 2.0 mph 4.0 mph 68% 0.00 in
23:39 67.1 °F 56.2 °F 29.81 in ESE 3.0 mph 3.0 mph 68% 0.00 in
23:40 67.1 °F 56.2 °F 29.81 in SE 2.0 mph 3.0 mph 68% 0.00 in
23:45 66.8 °F 56.3 °F 29.81 in SE 1.0 mph 2.0 mph 69% 0.00 in
Compliments of Weather Underground